Time;durP1;ratioP1;P1;durP2;ratioP2;P2;SDS_P1;SDS_P2;PMS_P1;PMS_P2;Temp;Humidity;BMP_temperature;BMP_pressure;BME280_temperature;BME280_humidity;BME280_pressure;Samples;Min_cycle;Max_cycle;Signal;HPM_P1;HPM_P2
2023/05/15 00:02:11;;;;;;;4.93;1.53;;;15.00;99.40;;;;;;5106342;28;20201;-63
2023/05/15 00:04:38;;;;;;;1.40;1.30;;;15.00;99.40;;;;;;5104974;28;20207;-64
2023/05/15 00:07:05;;;;;;;3.57;1.23;;;15.00;99.40;;;;;;5102676;28;20208;-64
2023/05/15 00:09:32;;;;;;;1.63;1.20;;;15.00;99.40;;;;;;5105513;28;20215;-64
2023/05/15 00:12:04;;;;;;;4.37;1.10;;;15.00;99.40;;;;;;5106518;28;20204;-63
2023/05/15 00:14:31;;;;;;;1.27;0.97;;;15.00;99.40;;;;;;5103881;28;20260;-64
2023/05/15 00:16:58;;;;;;;4.40;1.23;;;15.00;99.40;;;;;;5100221;28;20200;-64
2023/05/15 00:19:25;;;;;;;2.17;1.23;;;15.00;99.40;;;;;;5087371;28;20208;-64
2023/05/15 00:21:55;;;;;;;1.40;0.93;;;15.00;99.40;;;;;;5105556;28;20205;-63
2023/05/15 00:24:22;;;;;;;1.30;1.20;;;15.00;99.40;;;;;;5102522;28;20205;-63
2023/05/15 00:26:49;;;;;;;1.13;1.07;;;15.00;99.40;;;;;;5106466;28;20235;-63
2023/05/15 00:29:16;;;;;;;4.83;1.30;;;15.00;99.40;;;;;;5093850;28;20209;-64
2023/05/15 00:31:44;;;;;;;3.60;1.27;;;15.00;99.40;;;;;;5084785;28;20303;-64
2023/05/15 00:34:11;;;;;;;3.23;1.50;;;15.00;99.70;;;;;;5086313;28;20255;-64
2023/05/15 00:36:40;;;;;;;3.60;1.50;;;15.00;99.40;;;;;;5083548;28;20257;-63
2023/05/15 00:39:07;;;;;;;2.93;1.30;;;15.00;99.40;;;;;;5086788;28;20323;-63
2023/05/15 00:41:39;;;;;;;1.77;1.37;;;14.90;99.40;;;;;;5087281;28;20228;-63
2023/05/15 00:44:07;;;;;;;3.97;1.73;;;14.90;99.40;;;;;;5084827;28;20196;-64
2023/05/15 00:46:39;;;;;;;3.77;1.80;;;14.90;99.40;;;;;;5082732;28;20311;-64
2023/05/15 00:49:12;;;;;;;5.00;1.60;;;14.90;99.40;;;;;;5083653;28;20646;-64
2023/05/15 00:51:42;;;;;;;2.80;1.70;;;14.90;99.40;;;;;;5081804;28;20207;-64
2023/05/15 00:54:12;;;;;;;2.70;2.07;;;14.90;99.40;;;;;;5081532;28;20257;-64
2023/05/15 00:56:43;;;;;;;2.30;1.60;;;14.90;99.30;;;;;;5081236;28;20205;-63
2023/05/15 00:59:12;;;;;;;5.90;1.50;;;14.90;99.30;;;;;;5083303;28;20201;-64
2023/05/15 01:01:44;;;;;;;2.70;1.60;;;14.90;99.20;;;;;;5078468;28;20270;-63
2023/05/15 01:04:11;;;;;;;3.27;2.00;;;14.90;99.20;;;;;;5086236;28;20207;-64
2023/05/15 01:06:38;;;;;;;1.73;1.57;;;14.90;99.20;;;;;;5080708;28;20248;-63
2023/05/15 01:09:07;;;;;;;4.93;1.70;;;14.90;99.20;;;;;;5088057;28;20271;-64
2023/05/15 01:11:39;;;;;;;3.17;1.90;;;14.90;99.50;;;;;;5066955;28;20198;-64
2023/05/15 01:14:12;;;;;;;3.23;1.70;;;14.90;99.50;;;;;;5084838;28;20292;-64
2023/05/15 01:16:46;;;;;;;2.43;1.83;;;14.90;99.20;;;;;;5078464;28;20205;-64
2023/05/15 01:19:13;;;;;;;2.77;1.80;;;14.90;99.30;;;;;;5081018;28;20229;-64
2023/05/15 01:22:20;;;;;;;6.47;2.63;;;14.80;99.30;;;;;;5075833;28;20609;-64
2023/05/15 01:25:13;;;;;;;3.83;1.60;;;14.90;99.40;;;;;;5088674;28;20245;-64
2023/05/15 01:27:55;;;;;;;4.27;1.60;;;14.80;99.30;;;;;;5085010;28;20503;-64
2023/05/15 01:30:33;;;;;;;4.00;1.70;;;14.80;99.30;;;;;;5088444;28;20206;-64
2023/05/15 01:33:12;;;;;;;2.03;1.93;;;14.80;99.30;;;;;;5078115;28;20219;-63
2023/05/15 01:35:57;;;;;;;6.23;1.63;;;14.80;99.30;;;;;;5089056;28;20252;-63
2023/05/15 01:38:37;;;;;;;2.73;2.17;;;14.80;99.30;;;;;;5084631;28;20208;-63
2023/05/15 01:41:43;;;;;;;2.03;1.70;;;14.80;99.20;;;;;;5089604;28;20224;-64
2023/05/15 01:44:29;;;;;;;3.93;2.13;;;14.80;99.30;;;;;;5075987;28;20581;-63
2023/05/15 01:47:07;;;;;;;5.40;2.47;;;14.80;99.20;;;;;;5098809;28;20223;-63
2023/05/15 01:49:37;;;;;;;3.80;1.93;;;14.80;99.20;;;;;;5078988;28;20221;-63
2023/05/15 01:52:29;;;;;;;4.87;2.27;;;14.80;99.20;;;;;;5084921;28;20267;-63
2023/05/15 01:54:57;;;;;;;2.70;1.97;;;14.80;99.20;;;;;;5080120;28;20215;-63
2023/05/15 01:57:32;;;;;;;3.03;2.30;;;14.80;99.20;;;;;;5087837;28;20243;-63
2023/05/15 02:00:01;;;;;;;5.40;2.73;;;14.80;99.20;;;;;;5071074;28;20212;-63
2023/05/15 02:02:30;;;;;;;3.60;2.07;;;14.80;99.20;;;;;;5086302;28;20216;-64
2023/05/15 02:04:58;;;;;;;2.67;2.00;;;14.80;99.20;;;;;;5076094;28;20571;-63
2023/05/15 02:07:26;;;;;;;5.83;2.50;;;14.80;99.30;;;;;;5088850;28;20285;-63
2023/05/15 02:09:54;;;;;;;4.17;2.60;;;14.80;99.30;;;;;;5080222;28;20204;-65
2023/05/15 02:12:22;;;;;;;3.67;2.53;;;14.80;99.40;;;;;;5089719;28;20208;-63
2023/05/15 02:14:49;;;;;;;6.13;2.50;;;14.80;99.40;;;;;;5085668;28;20275;-63
2023/05/15 02:17:19;;;;;;;6.10;2.83;;;14.80;99.50;;;;;;5089933;28;20213;-63
2023/05/15 02:19:49;;;;;;;4.30;2.50;;;14.80;99.50;;;;;;5088392;28;20246;-64
2023/05/15 02:22:16;;;;;;;4.17;2.80;;;14.80;99.50;;;;;;5092930;28;20197;-63
2023/05/15 02:24:45;;;;;;;4.97;2.47;;;14.80;99.50;;;;;;5086837;28;20643;-64
2023/05/15 02:27:27;;;;;;;4.27;2.70;;;14.80;99.40;;;;;;5078406;28;20222;-64
2023/05/15 02:30:07;;;;;;;4.80;2.87;;;14.80;99.40;;;;;;5084995;28;20643;-64
2023/05/15 02:33:12;;;;;;;6.90;2.83;;;14.80;99.40;;;;;;5083065;28;20201;-64
2023/05/15 02:35:42;;;;;;;8.67;2.93;;;14.70;99.40;;;;;;5089118;28;20257;-64
2023/05/15 02:38:15;;;;;;;3.43;2.53;;;14.70;99.40;;;;;;5083994;28;20208;-64
2023/05/15 02:40:45;;;;;;;4.17;2.77;;;14.70;99.40;;;;;;5087986;28;20200;-64
2023/05/15 02:43:14;;;;;;;4.53;2.93;;;14.70;99.50;;;;;;5086704;28;20294;-64
2023/05/15 02:45:45;;;;;;;4.23;3.00;;;14.70;99.40;;;;;;5084066;28;20678;-64
2023/05/15 02:48:16;;;;;;;8.27;3.20;;;14.70;99.40;;;;;;5081735;28;20200;-64
2023/05/15 02:50:44;;;;;;;5.07;3.17;;;14.70;99.30;;;;;;5090395;28;20205;-63
2023/05/15 02:53:13;;;;;;;7.43;2.77;;;14.70;99.30;;;;;;5086031;28;20205;-63
2023/05/15 02:55:40;;;;;;;3.60;3.30;;;14.60;99.30;;;;;;5093193;28;20714;-64
2023/05/15 02:58:08;;;;;;;7.73;2.53;;;14.60;99.30;;;;;;5084805;28;20209;-63
2023/05/15 03:00:35;;;;;;;6.30;2.20;;;14.60;99.40;;;;;;5084725;28;20265;-63
2023/05/15 03:03:02;;;;;;;3.77;2.27;;;14.50;99.40;;;;;;5087160;28;20224;-64
2023/05/15 03:05:29;;;;;;;6.27;3.10;;;14.50;99.40;;;;;;5090172;28;20208;-64
2023/05/15 03:07:58;;;;;;;7.60;2.50;;;14.50;99.50;;;;;;5090587;28;20636;-63
2023/05/15 03:10:25;;;;;;;4.03;2.40;;;14.40;99.40;;;;;;5067405;28;20700;-64
2023/05/15 03:12:57;;;;;;;3.10;2.90;;;14.40;99.50;;;;;;5087459;28;20189;-63
2023/05/15 03:15:24;;;;;;;3.97;2.60;;;14.40;99.50;;;;;;5095791;28;20209;-64
2023/05/15 03:17:51;;;;;;;3.00;2.70;;;14.40;99.50;;;;;;5084906;28;20552;-64
2023/05/15 03:20:21;;;;;;;3.07;2.40;;;14.40;99.60;;;;;;5078920;28;20274;-64
2023/05/15 03:22:50;;;;;;;5.57;2.80;;;14.40;99.60;;;;;;5084513;28;20288;-64
2023/05/15 03:25:17;;;;;;;7.77;3.57;;;14.40;99.60;;;;;;5079931;28;20520;-64
2023/05/15 03:27:44;;;;;;;4.53;2.90;;;14.40;99.60;;;;;;5090637;28;20252;-63
2023/05/15 03:30:11;;;;;;;5.07;3.27;;;14.40;99.60;;;;;;5084462;28;20584;-64
2023/05/15 03:32:39;;;;;;;6.70;3.30;;;14.50;99.60;;;;;;5084066;28;20282;-64
2023/05/15 03:35:06;;;;;;;8.37;3.70;;;14.50;99.70;;;;;;5098965;28;20247;-63
2023/05/15 03:37:33;;;;;;;4.10;3.70;;;14.50;99.70;;;;;;5100388;28;20703;-63
2023/05/15 03:40:00;;;;;;;6.43;4.03;;;14.50;99.60;;;;;;5106819;28;20541;-63
2023/05/15 03:42:28;;;;;;;4.20;3.77;;;14.50;99.50;;;;;;5099940;28;20553;-64
2023/05/15 03:44:57;;;;;;;4.30;3.90;;;14.50;99.50;;;;;;5103698;28;20200;-64
2023/05/15 03:47:25;;;;;;;4.97;4.30;;;14.50;99.50;;;;;;5105755;28;20558;-64
2023/05/15 03:49:52;;;;;;;5.57;4.37;;;14.50;99.60;;;;;;5098236;28;20697;-63
2023/05/15 03:52:19;;;;;;;7.77;5.00;;;14.40;99.50;;;;;;5096439;28;20235;-64
2023/05/15 03:54:46;;;;;;;5.80;4.50;;;14.50;99.50;;;;;;5104111;28;20678;-64
2023/05/15 03:57:13;;;;;;;7.90;5.47;;;14.40;99.50;;;;;;5105715;28;20270;-64
2023/05/15 03:59:40;;;;;;;9.40;5.17;;;14.40;99.50;;;;;;5102299;28;20207;-63
2023/05/15 04:02:10;;;;;;;7.77;5.53;;;14.40;99.60;;;;;;5098571;28;20228;-63
2023/05/15 04:04:37;;;;;;;8.03;5.07;;;14.40;99.60;;;;;;5099796;28;20654;-64
2023/05/15 04:07:05;;;;;;;6.53;4.50;;;14.40;99.70;;;;;;5100677;28;20696;-63
2023/05/15 04:09:32;;;;;;;6.60;3.97;;;14.40;99.70;;;;;;5087290;28;20623;-63
2023/05/15 04:12:00;;;;;;;6.27;4.13;;;14.50;99.60;;;;;;5103561;28;20193;-63
2023/05/15 04:14:27;;;;;;;6.03;5.53;;;14.50;99.60;;;;;;5100895;28;20197;-63
2023/05/15 04:16:56;;;;;;;5.27;4.87;;;14.50;99.50;;;;;;5097142;28;20276;-63
2023/05/15 04:19:23;;;;;;;6.47;5.10;;;14.50;99.50;;;;;;5104197;28;20215;-64
2023/05/15 04:21:49;;;;;;;7.97;6.57;;;14.50;99.50;;;;;;5102945;28;20319;-63
2023/05/15 04:24:19;;;;;;;6.77;6.07;;;14.50;99.50;;;;;;5103850;28;20292;-63
2023/05/15 04:26:45;;;;;;;7.00;6.40;;;14.50;99.40;;;;;;5104286;28;20263;-63
2023/05/15 04:29:13;;;;;;;9.10;6.43;;;14.50;99.50;;;;;;5102402;28;20237;-63
2023/05/15 04:31:39;;;;;;;10.33;6.37;;;14.50;99.60;;;;;;5103934;28;20278;-63
2023/05/15 04:34:09;;;;;;;8.20;7.40;;;14.50;99.60;;;;;;5102604;27;20229;-63
2023/05/15 04:36:36;;;;;;;8.40;7.17;;;14.60;99.70;;;;;;5103317;28;20612;-63
2023/05/15 04:39:03;;;;;;;9.10;6.07;;;14.60;99.70;;;;;;5096389;28;20201;-63
2023/05/15 04:41:33;;;;;;;9.20;5.97;;;14.60;99.70;;;;;;5106858;28;20196;-63
2023/05/15 04:44:00;;;;;;;7.43;5.87;;;14.70;99.70;;;;;;5100915;28;20193;-63
2023/05/15 04:46:28;;;;;;;6.67;5.90;;;14.70;99.70;;;;;;5107337;28;20646;-64
2023/05/15 04:49:00;;;;;;;6.57;5.87;;;14.70;99.80;;;;;;5105929;28;20243;-63
2023/05/15 04:51:28;;;;;;;8.03;5.80;;;14.70;99.90;;;;;;5100857;28;20603;-63
2023/05/15 04:53:55;;;;;;;7.30;5.93;;;14.80;99.90;;;;;;5107162;28;20196;-64
2023/05/15 04:56:22;;;;;;;8.87;5.80;;;14.90;99.90;;;;;;5106412;28;20541;-63
2023/05/15 04:58:49;;;;;;;8.67;6.87;;;15.00;99.90;;;;;;5103199;28;20231;-64
2023/05/15 05:01:16;;;;;;;9.27;6.63;;;15.10;99.90;;;;;;5102520;28;20806;-64
2023/05/15 05:03:43;;;;;;;8.57;7.63;;;15.10;99.80;;;;;;5102066;28;20680;-63
2023/05/15 05:06:10;;;;;;;8.87;7.93;;;15.20;99.70;;;;;;5101394;28;20605;-63
2023/05/15 05:08:39;;;;;;;9.57;7.80;;;15.30;99.70;;;;;;5104446;28;20296;-63
2023/05/15 05:11:09;;;;;;;10.60;8.17;;;15.30;99.50;;;;;;5105802;28;20196;-64
2023/05/15 05:13:36;;;;;;;12.37;8.83;;;15.40;99.50;;;;;;5105935;28;20587;-63
2023/05/15 05:16:06;;;;;;;14.23;8.57;;;15.40;99.40;;;;;;5103153;28;20266;-64
2023/05/15 05:18:36;;;;;;;10.90;8.80;;;15.40;99.30;;;;;;5107110;28;20224;-63
2023/05/15 05:21:05;;;;;;;9.57;8.57;;;15.40;99.30;;;;;;5105861;28;20193;-64
2023/05/15 05:23:32;;;;;;;9.70;8.30;;;15.50;99.40;;;;;;5108324;28;20279;-64
2023/05/15 05:25:59;;;;;;;13.80;9.70;;;15.50;99.40;;;;;;5104353;28;20208;-63
2023/05/15 05:28:26;;;;;;;12.57;10.90;;;15.60;99.30;;;;;;5104262;28;20196;-63
2023/05/15 05:30:53;;;;;;;12.83;11.20;;;15.60;99.30;;;;;;5099184;28;20212;-63
2023/05/15 05:33:22;;;;;;;12.73;10.87;;;15.70;99.40;;;;;;5102377;28;20196;-64
2023/05/15 05:35:50;;;;;;;13.07;10.73;;;15.80;99.50;;;;;;5086391;28;20236;-63
2023/05/15 05:38:17;;;;;;;11.47;9.77;;;16.00;99.50;;;;;;5080841;28;20189;-63
2023/05/15 05:40:46;;;;;;;13.33;9.90;;;16.20;99.40;;;;;;5083911;28;20201;-63
2023/05/15 05:43:13;;;;;;;12.00;10.73;;;16.40;99.10;;;;;;5078751;28;20652;-64
2023/05/15 05:45:43;;;;;;;11.83;10.63;;;16.40;98.90;;;;;;5085263;28;20193;-64
2023/05/15 05:48:12;;;;;;;12.57;11.30;;;16.60;98.90;;;;;;5091534;28;20296;-64
2023/05/15 05:50:41;;;;;;;12.37;10.80;;;16.70;98.70;;;;;;5084346;28;20224;-64
2023/05/15 05:53:08;;;;;;;12.90;10.53;;;16.90;98.60;;;;;;5087569;28;20202;-64
2023/05/15 05:55:35;;;;;;;13.90;11.27;;;17.00;98.40;;;;;;5091763;28;20190;-64
2023/05/15 05:58:03;;;;;;;12.93;9.87;;;17.10;98.10;;;;;;5085980;28;20559;-64
2023/05/15 06:00:40;;;;;;;10.10;9.03;;;17.20;97.90;;;;;;5083486;28;20197;-64
2023/05/15 06:03:10;;;;;;;9.60;8.60;;;17.20;97.60;;;;;;5091745;28;20316;-64
2023/05/15 06:05:37;;;;;;;10.27;9.20;;;17.30;97.10;;;;;;5082770;28;20202;-64
2023/05/15 06:08:05;;;;;;;11.97;10.47;;;17.30;96.90;;;;;;5085156;28;20218;-64
2023/05/15 06:10:32;;;;;;;10.10;8.63;;;17.30;96.80;;;;;;5089989;28;20292;-64
2023/05/15 06:12:59;;;;;;;11.20;10.03;;;17.30;96.60;;;;;;5085855;28;20625;-64
2023/05/15 06:15:28;;;;;;;12.63;10.70;;;17.30;96.20;;;;;;5084824;28;20642;-64
2023/05/15 06:17:55;;;;;;;12.00;9.60;;;17.30;96.10;;;;;;5087567;28;20654;-64
2023/05/15 06:20:22;;;;;;;11.13;10.10;;;17.30;95.90;;;;;;5084640;28;20210;-64
2023/05/15 06:22:54;;;;;;;10.00;9.00;;;17.40;95.80;;;;;;5081330;28;20205;-64
2023/05/15 06:25:22;;;;;;;10.47;9.03;;;17.40;95.60;;;;;;5091626;28;20266;-64
2023/05/15 06:27:49;;;;;;;13.03;9.13;;;17.40;95.20;;;;;;5081194;28;20643;-64
2023/05/15 06:30:18;;;;;;;11.70;9.93;;;17.50;95.10;;;;;;5085009;28;20254;-64
2023/05/15 06:32:48;;;;;;;10.03;8.97;;;17.60;95.20;;;;;;5078923;28;20284;-64
2023/05/15 06:35:15;;;;;;;9.30;7.70;;;17.80;95.30;;;;;;5099083;28;20246;-64
2023/05/15 06:37:42;;;;;;;10.87;7.77;;;17.90;94.20;;;;;;5099543;28;20202;-64
2023/05/15 06:40:09;;;;;;;8.13;7.43;;;17.90;93.30;;;;;;5105791;28;20216;-64
2023/05/15 06:42:37;;;;;;;10.07;7.13;;;17.90;93.70;;;;;;5104189;28;20253;-64
2023/05/15 06:45:05;;;;;;;10.37;7.67;;;18.10;94.00;;;;;;5091538;28;20225;-64
2023/05/15 06:47:32;;;;;;;11.87;8.37;;;18.20;93.60;;;;;;5092549;28;20289;-64
2023/05/15 06:49:59;;;;;;;10.57;9.47;;;18.40;93.70;;;;;;5103705;28;20640;-64
2023/05/15 06:52:26;;;;;;;10.30;9.37;;;18.60;93.70;;;;;;5107599;28;20273;-64
2023/05/15 06:54:55;;;;;;;9.17;8.20;;;18.80;94.00;;;;;;5102735;28;20250;-64
2023/05/15 06:57:26;;;;;;;8.63;7.17;;;18.90;93.80;;;;;;5106539;28;20607;-65
2023/05/15 06:59:53;;;;;;;10.27;7.67;;;19.10;93.70;;;;;;5104318;28;20235;-64
2023/05/15 07:02:19;;;;;;;8.40;7.60;;;19.30;93.30;;;;;;5103148;28;20300;-64
2023/05/15 07:04:54;;;;;;;8.70;7.63;;;19.50;93.00;;;;;;5093164;28;20210;-64
2023/05/15 07:07:21;;;;;;;7.63;6.83;;;19.60;92.50;;;;;;5103200;28;20713;-64
2023/05/15 07:09:52;;;;;;;7.77;6.97;;;19.70;92.10;;;;;;5109608;28;20639;-64
2023/05/15 07:12:19;;;;;;;9.27;7.97;;;19.80;91.50;;;;;;5100905;28;20200;-64
2023/05/15 07:14:50;;;;;;;8.43;7.63;;;19.80;91.30;;;;;;5110559;28;20195;-64
2023/05/15 07:17:20;;;;;;;8.53;7.37;;;19.90;91.10;;;;;;5107197;28;20210;-64
2023/05/15 07:19:47;;;;;;;7.87;6.80;;;20.10;91.40;;;;;;5106671;28;20208;-65
2023/05/15 07:22:14;;;;;;;7.33;6.57;;;20.10;90.30;;;;;;5092660;28;20208;-65
2023/05/15 07:24:41;;;;;;;12.00;7.33;;;20.10;90.10;;;;;;5106839;28;20204;-64
2023/05/15 07:27:08;;;;;;;8.87;7.07;;;20.20;90.40;;;;;;5107552;28;20251;-65
2023/05/15 07:29:37;;;;;;;7.40;6.70;;;20.20;90.20;;;;;;5107843;28;20726;-64
2023/05/15 07:32:04;;;;;;;7.50;6.50;;;20.20;90.00;;;;;;5108051;28;20283;-64
2023/05/15 07:34:31;;;;;;;7.73;6.93;;;20.30;90.30;;;;;;5084707;28;20298;-64
2023/05/15 07:36:58;;;;;;;7.90;7.20;;;20.40;90.60;;;;;;5081746;28;20295;-64
2023/05/15 07:39:25;;;;;;;7.40;6.77;;;20.60;90.00;;;;;;5089718;28;20212;-64
2023/05/15 07:41:52;;;;;;;7.53;6.77;;;20.70;87.50;;;;;;5081133;28;20216;-64
2023/05/15 07:44:21;;;;;;;8.90;6.73;;;20.80;86.80;;;;;;5088391;28;20276;-64
2023/05/15 07:46:48;;;;;;;7.57;6.73;;;20.90;86.70;;;;;;5088333;28;20642;-64
2023/05/15 07:49:18;;;;;;;7.03;6.33;;;21.00;87.00;;;;;;5084353;28;20212;-64
2023/05/15 07:51:47;;;;;;;7.10;5.87;;;21.20;85.90;;;;;;5081013;28;20197;-64
2023/05/15 07:54:15;;;;;;;7.87;6.40;;;21.20;84.30;;;;;;5079172;28;20204;-65
2023/05/15 07:56:42;;;;;;;6.37;5.53;;;21.20;83.00;;;;;;5084874;28;20267;-64
2023/05/15 07:59:12;;;;;;;8.43;6.20;;;21.10;82.90;;;;;;5092475;28;20648;-64
2023/05/15 08:01:39;;;;;;;7.67;6.03;;;21.00;83.60;;;;;;5084358;28;20236;-64
2023/05/15 08:04:08;;;;;;;5.87;5.37;;;20.90;84.80;;;;;;5080188;28;20288;-64
2023/05/15 08:06:38;;;;;;;6.93;5.27;;;21.00;85.10;;;;;;5083699;28;20197;-64
2023/05/15 08:09:05;;;;;;;6.47;5.67;;;21.10;84.40;;;;;;5084073;28;20597;-64
2023/05/15 08:11:32;;;;;;;6.47;5.77;;;21.30;83.80;;;;;;5083925;28;20268;-64
2023/05/15 08:13:59;;;;;;;8.13;5.30;;;21.40;83.00;;;;;;5084963;28;20193;-64
2023/05/15 08:16:29;;;;;;;5.70;5.13;;;21.40;82.60;;;;;;5078829;28;20204;-64
2023/05/15 08:19:03;;;;;;;5.60;5.10;;;21.50;83.10;;;;;;5081547;28;20250;-64
2023/05/15 08:21:31;;;;;;;5.70;4.97;;;21.60;83.10;;;;;;5080846;28;20707;-64
2023/05/15 08:23:59;;;;;;;5.10;4.70;;;21.70;82.20;;;;;;5085079;28;20205;-64
2023/05/15 08:26:29;;;;;;;4.73;4.33;;;21.80;81.40;;;;;;5080798;28;20255;-64
2023/05/15 08:28:56;;;;;;;5.83;5.20;;;21.80;80.10;;;;;;5084757;28;20262;-65
2023/05/15 08:31:23;;;;;;;5.23;4.73;;;21.90;80.20;;;;;;5078680;28;20198;-64
2023/05/15 08:33:53;;;;;;;4.47;4.13;;;22.00;80.80;;;;;;5084526;28;20281;-64
2023/05/15 08:36:22;;;;;;;7.20;4.33;;;22.20;79.30;;;;;;5100206;28;20241;-64
2023/05/15 08:38:51;;;;;;;4.37;3.97;;;22.30;77.50;;;;;;5101970;28;20204;-64
2023/05/15 08:41:30;;;;;;;3.77;3.47;;;22.30;78.40;;;;;;5106154;28;20201;-64
2023/05/15 08:44:08;;;;;;;3.23;2.87;;;22.50;78.50;;;;;;5100518;28;20577;-64
2023/05/15 08:46:35;;;;;;;5.40;3.67;;;22.70;78.00;;;;;;5102656;28;20286;-65
2023/05/15 08:49:34;;;;;;;5.07;4.67;;;22.90;78.50;;;;;;5097280;28;20212;-65
2023/05/15 08:52:04;;;;;;;5.73;4.60;;;23.00;77.00;;;;;;5088248;28;20214;-65
2023/05/15 08:54:37;;;;;;;4.90;4.50;;;23.00;75.60;;;;;;5097804;28;20958;-64
2023/05/15 08:57:05;;;;;;;6.00;5.40;;;22.80;75.40;;;;;;5105022;28;20205;-64
2023/05/15 08:59:32;;;;;;;4.97;4.57;;;22.70;76.50;;;;;;5099424;28;20292;-65
2023/05/15 09:01:59;;;;;;;4.73;4.30;;;22.90;76.40;;;;;;5105350;28;20196;-64
2023/05/15 09:04:26;;;;;;;5.50;5.10;;;22.90;76.50;;;;;;5100104;28;20197;-65
2023/05/15 09:06:54;;;;;;;5.63;4.57;;;23.00;75.80;;;;;;5101741;28;20638;-64
2023/05/15 09:09:23;;;;;;;5.43;4.93;;;23.00;75.90;;;;;;5102764;28;20593;-65
2023/05/15 09:11:50;;;;;;;6.47;4.97;;;22.80;76.90;;;;;;5091075;28;20193;-64
2023/05/15 09:14:19;;;;;;;4.80;4.33;;;22.60;77.30;;;;;;5102273;28;20193;-64
2023/05/15 09:16:49;;;;;;;6.57;6.00;;;22.50;77.20;;;;;;5102246;28;20207;-65
2023/05/15 09:19:22;;;;;;;4.17;3.80;;;22.20;78.30;;;;;;5103902;28;20249;-65
2023/05/15 09:21:49;;;;;;;3.67;3.37;;;22.10;77.30;;;;;;5102499;28;20204;-65
2023/05/15 09:24:23;;;;;;;4.57;4.20;;;22.00;77.30;;;;;;5096812;28;20236;-65
2023/05/15 09:27:05;;;;;;;5.67;4.83;;;22.10;76.90;;;;;;5108780;28;20540;-65
2023/05/15 09:29:35;;;;;;;4.57;3.87;;;22.10;77.50;;;;;;5108084;28;20627;-64
2023/05/15 09:32:05;;;;;;;4.70;4.30;;;22.30;78.30;;;;;;5104268;28;20545;-64
2023/05/15 09:34:41;;;;;;;4.37;3.97;;;22.60;78.60;;;;;;5108420;28;20228;-65
2023/05/15 09:37:10;;;;;;;4.60;4.20;;;23.00;78.20;;;;;;5113063;28;20260;-65
2023/05/15 09:39:41;;;;;;;3.97;3.67;;;23.20;76.70;;;;;;5105612;28;20197;-65
2023/05/15 09:42:10;;;;;;;3.70;3.40;;;23.20;76.00;;;;;;5096272;28;20249;-65
2023/05/15 09:44:44;;;;;;;4.27;3.47;;;23.10;76.00;;;;;;5102879;28;20287;-65
2023/05/15 09:47:13;;;;;;;4.70;3.53;;;22.90;76.10;;;;;;5106110;28;20677;-65
2023/05/15 09:49:43;;;;;;;3.70;3.40;;;22.80;76.10;;;;;;5095110;28;20627;-65
2023/05/15 09:52:10;;;;;;;5.30;3.03;;;22.80;75.10;;;;;;5109025;28;20188;-65
2023/05/15 09:54:37;;;;;;;3.30;3.00;;;22.80;75.10;;;;;;5100920;28;20193;-65
2023/05/15 09:57:10;;;;;;;4.03;2.70;;;22.90;74.50;;;;;;5104653;28;20200;-65
2023/05/15 09:59:45;;;;;;;3.87;2.50;;;23.00;73.50;;;;;;5106648;28;20543;-65
2023/05/15 10:02:34;;;;;;;2.50;2.40;;;23.10;72.70;;;;;;5100409;28;20215;-65
2023/05/15 10:05:01;;;;;;;2.30;2.20;;;23.20;73.80;;;;;;5090495;28;20686;-65
2023/05/15 10:07:34;;;;;;;2.83;2.43;;;23.30;72.00;;;;;;5090857;28;20220;-65
2023/05/15 10:10:03;;;;;;;6.33;3.10;;;23.30;71.80;;;;;;5103151;28;20203;-65
2023/05/15 10:12:31;;;;;;;2.97;2.70;;;23.10;72.20;;;;;;5096723;28;20212;-65
2023/05/15 10:15:03;;;;;;;3.90;2.63;;;22.90;73.20;;;;;;5105606;28;20193;-66
2023/05/15 10:17:35;;;;;;;3.87;2.70;;;22.90;73.00;;;;;;5106345;28;20200;-65
2023/05/15 10:20:05;;;;;;;4.90;2.40;;;23.10;71.90;;;;;;5105640;28;20201;-66
2023/05/15 10:22:37;;;;;;;2.67;2.03;;;23.20;70.30;;;;;;5106430;28;20255;-65
2023/05/15 10:25:40;;;;;;;2.27;2.07;;;23.30;68.40;;;;;;5105154;28;20192;-65
2023/05/15 10:28:09;;;;;;;3.83;1.87;;;23.40;68.90;;;;;;5084301;28;20700;-66
2023/05/15 10:30:37;;;;;;;1.80;1.70;;;23.40;68.30;;;;;;5094102;28;20217;-65
2023/05/15 10:33:05;;;;;;;2.00;1.80;;;23.50;68.00;;;;;;5109337;28;20611;-65
2023/05/15 10:35:36;;;;;;;3.40;1.50;;;23.60;69.10;;;;;;5108428;28;20268;-65
2023/05/15 10:38:07;;;;;;;2.07;1.87;;;23.90;69.40;;;;;;5104503;28;20255;-66
2023/05/15 10:40:38;;;;;;;6.67;1.83;;;24.10;69.00;;;;;;5107255;28;20220;-66
2023/05/15 10:43:10;;;;;;;3.83;2.10;;;24.30;67.40;;;;;;5103022;28;20219;-66
2023/05/15 10:45:38;;;;;;;2.80;1.90;;;24.30;66.20;;;;;;5110137;28;20220;-66
2023/05/15 10:48:07;;;;;;;2.10;2.00;;;24.00;66.40;;;;;;5101885;28;20256;-66
2023/05/15 10:50:36;;;;;;;4.23;1.80;;;23.70;67.10;;;;;;5109092;28;20549;-66
2023/05/15 10:53:03;;;;;;;2.07;1.40;;;23.30;67.50;;;;;;5095805;28;20208;-66
2023/05/15 10:55:30;;;;;;;2.37;1.40;;;23.10;68.70;;;;;;5091996;28;20205;-66
2023/05/15 10:57:57;;;;;;;1.87;1.63;;;22.80;69.40;;;;;;5100801;28;20215;-66
2023/05/15 11:00:41;;;;;;;2.13;1.60;;;22.80;69.30;;;;;;5097082;28;20209;-66
2023/05/15 11:03:15;;;;;;;1.50;1.40;;;23.00;69.60;;;;;;5107204;28;20630;-66
2023/05/15 11:06:11;;;;;;;1.53;1.40;;;23.20;71.90;;;;;;5093004;28;20539;-66
2023/05/15 11:08:40;;;;;;;3.70;1.10;;;23.50;68.40;;;;;;5103270;28;20205;-66
2023/05/15 11:11:07;;;;;;;1.40;1.00;;;23.60;67.90;;;;;;5105670;28;20280;-66
2023/05/15 11:14:06;;;;;;;1.23;1.00;;;23.50;67.60;;;;;;5104720;28;20196;-66
2023/05/15 11:16:58;;;;;;;3.20;1.57;;;23.20;68.10;;;;;;5105864;28;20197;-67
2023/05/15 11:19:28;;;;;;;1.17;1.07;;;22.90;68.20;;;;;;5096189;28;20220;-66
2023/05/15 11:21:58;;;;;;;1.67;1.20;;;22.70;69.40;;;;;;5102609;28;20597;-66
2023/05/15 11:24:52;;;;;;;1.70;1.30;;;22.70;70.30;;;;;;5102940;28;20220;-66
2023/05/15 11:27:23;;;;;;;3.07;1.20;;;22.70;70.50;;;;;;5103054;28;20205;-66
2023/05/15 11:30:23;;;;;;;3.43;1.20;;;22.60;70.60;;;;;;5107472;28;20265;-66
2023/05/15 11:33:03;;;;;;;1.50;1.40;;;22.70;70.60;;;;;;5103170;28;20657;-66
2023/05/15 11:35:38;;;;;;;1.43;1.23;;;22.80;71.40;;;;;;5105043;28;20554;-66
2023/05/15 11:38:24;;;;;;;1.80;1.20;;;22.90;68.60;;;;;;5099728;28;20196;-66
2023/05/15 11:41:01;;;;;;;2.27;1.20;;;22.80;69.10;;;;;;5107797;28;20586;-66
2023/05/15 11:43:34;;;;;;;1.77;1.00;;;22.70;69.50;;;;;;5100598;28;20614;-67
2023/05/15 11:46:11;;;;;;;1.10;1.00;;;22.80;70.30;;;;;;5089374;28;20196;-66
2023/05/15 11:48:43;;;;;;;1.00;0.90;;;23.10;69.80;;;;;;5100518;28;20266;-66
2023/05/15 11:51:18;;;;;;;1.60;0.73;;;23.40;68.60;;;;;;5103766;28;20284;-67
2023/05/15 11:53:45;;;;;;;0.93;0.90;;;23.60;67.70;;;;;;5098499;28;20193;-66
2023/05/15 11:56:18;;;;;;;0.83;0.80;;;23.80;68.20;;;;;;5101925;28;20231;-66
2023/05/15 11:58:53;;;;;;;0.80;0.80;;;24.00;67.20;;;;;;5103040;28;20225;-67
2023/05/15 12:01:20;;;;;;;0.80;0.80;;;24.20;64.70;;;;;;5103961;28;20201;-66
2023/05/15 12:03:48;;;;;;;0.77;0.60;;;24.30;65.00;;;;;;5103964;28;20567;-67
2023/05/15 12:06:16;;;;;;;0.50;0.50;;;24.50;64.90;;;;;;5098959;28;20192;-67
2023/05/15 12:08:51;;;;;;;1.20;0.73;;;24.60;64.80;;;;;;5105461;28;20300;-67
2023/05/15 12:11:22;;;;;;;0.80;0.60;;;24.70;64.20;;;;;;5086753;28;20198;-67
2023/05/15 12:13:52;;;;;;;0.67;0.40;;;24.60;63.80;;;;;;5095578;28;20197;-67
2023/05/15 12:16:38;;;;;;;2.40;0.80;;;24.60;63.90;;;;;;5101093;28;20235;-67
2023/05/15 12:19:05;;;;;;;0.90;0.80;;;24.50;64.00;;;;;;5106323;28;20651;-67
2023/05/15 12:21:42;;;;;;;3.33;0.80;;;24.40;62.80;;;;;;5101806;28;20213;-67
2023/05/15 12:24:11;;;;;;;1.67;1.13;;;24.30;63.10;;;;;;5100540;28;20200;-67
2023/05/15 12:26:38;;;;;;;0.77;0.77;;;24.10;63.20;;;;;;5101794;28;20200;-67
2023/05/15 12:29:06;;;;;;;2.07;0.60;;;24.10;63.10;;;;;;5104562;28;20225;-67
2023/05/15 12:31:34;;;;;;;2.13;1.40;;;24.20;63.90;;;;;;5094658;28;20215;-67
2023/05/15 12:34:01;;;;;;;1.27;0.80;;;24.30;63.80;;;;;;5089051;28;20215;-67
2023/05/15 12:36:29;;;;;;;3.13;1.27;;;24.40;63.70;;;;;;5106334;28;20233;-67
2023/05/15 12:38:57;;;;;;;1.33;1.00;;;24.50;63.40;;;;;;5099690;28;20579;-67
2023/05/15 12:41:28;;;;;;;1.77;1.30;;;24.50;63.30;;;;;;5105583;28;20230;-67
2023/05/15 12:43:55;;;;;;;1.97;1.30;;;24.60;64.20;;;;;;5107936;28;20201;-67
2023/05/15 12:46:30;;;;;;;1.40;1.30;;;24.60;62.80;;;;;;5099907;28;20203;-67
2023/05/15 12:48:58;;;;;;;3.00;1.70;;;24.70;63.80;;;;;;5098870;28;20209;-67
2023/05/15 12:51:26;;;;;;;2.13;1.40;;;24.70;61.50;;;;;;5105121;28;20602;-67
2023/05/15 12:53:53;;;;;;;1.70;1.60;;;24.60;62.80;;;;;;5103562;28;20188;-68
2023/05/15 12:56:21;;;;;;;2.00;1.80;;;24.60;62.10;;;;;;5107707;28;20670;-67
2023/05/15 12:58:53;;;;;;;2.00;1.80;;;24.60;60.90;;;;;;5100630;28;20193;-66
2023/05/15 13:01:20;;;;;;;2.40;1.93;;;24.60;62.30;;;;;;5104934;28;20226;-67
2023/05/15 13:03:52;;;;;;;1.83;1.73;;;24.50;62.60;;;;;;5103421;28;20193;-67